NCAR-RAP Real-Time Weather Data

Output produced by METARs form (17 October 2018  16:10 UTC)
found at http://weather.rap.ucar.edu/surface/
 
RJTT 171600Z 02012KT 9999 FEW015 SCT/// 17/14 Q1014 NOSIG RMK 1CU015 A2995
RJTT 171530Z 01012KT 9999 FEW015 BKN/// 17/14 Q1014 NOSIG
RJTT 171500Z 03009KT 9999 FEW020 BKN/// 17/13 Q1014 NOSIG RMK 1CU020 A2995
RJTT 171430Z 03009KT 9999 FEW020 SCT110 BKN/// 18/13 Q1014 NOSIG
RJTT 171400Z 03011KT 9999 FEW020 BKN110 BKN/// 18/14 Q1014 NOSIG RMK 1CU020 6AC110 A2994
RJTT 171330Z 03011KT 9999 FEW020 SCT110 BKN/// 18/14 Q1014 NOSIG
RJTT 171300Z 03012KT 9999 FEW020 BKN/// 18/14 Q1014 NOSIG RMK 1CU020 A2996
RJTT 171230Z 04011KT 9999 FEW020 SCT090 BKN/// 18/14 Q1014 NOSIG
RJTT 171200Z 04011KT 9999 FEW020 SCT040 BKN080 18/14 Q1014 NOSIG RMK 1CU020 3SC040 7AC080 A2995
RJTT 171130Z 05013KT 9999 -RA FEW020 SCT040 BKN080 19/14 Q1014 NOSIG RMK 1CU020 3SC040 7AC080 A2994
RJTT 171100Z 05013KT 9999 -RA FEW020 BKN070 19/14 Q1013 NOSIG RMK 1CU020 7AC070 A2994
RJTT 171030Z 05015KT 9999 FEW020 BKN070 BKN100 19/14 Q1013 NOSIG RMK 1CU020 5AC070 7AC100 A2992
RJTT 171000Z 05015KT 9999 FEW020 BKN070 19/14 Q1013 NOSIG RMK 1CU020 7AC070 A2992
RJTT 170930Z 06013KT 9999 FEW020 BKN070 19/15 Q1013 BECMG 05014KT
RJTT 170900Z 05015KT 9999 -RA FEW020 BKN060 BKN100 19/15 Q1012 NOSIG RMK 1CU020 5SC060 7AC100 A2990
RJTT 170830Z 07013KT 9999 -RA FEW020 BKN060 BKN100 19/16 Q1012 NOSIG RMK 1CU020 5SC060 7AC100 A2989
RJTT 170800Z 07016KT 9999 -RA FEW025 BKN060 BKN100 20/15 Q1011 NOSIG RMK 1CU025 6SC060 7AC100 A2987 MOD TURB OBS AT 0747Z TAURA BTN 11000FT AND 12000FT IN CMB BY B738
RJTT 170730Z 07014KT 9999 -RA FEW030 BKN060 BKN070 20/15 Q1010 NOSIG RMK 1CU030 6SC060 7AC070 A2985 MOD TURB OBS AT 0704Z BAYGE BTN 10000FT AND 13000FT IN CMB BY B737
RJTT 170700Z 07015KT 9999 -RA FEW030 BKN060 BKN070 20/15 Q1010 NOSIG RMK 1CU030 6SC060 7AC070 A2985 MOD TURB OBS AT 0633Z 10NM S ARLON BTN 9000FT AND 7500FT IN DES BY B738
RJTT 170630Z 07016KT 9999 FEW030 SCT045 BKN060 21/15 Q1010 BECMG 05014KT
RJTT 170600Z 05013KT 9999 FEW030 SCT040 BKN070 21/15 Q1009 NOSIG RMK 1CU030 4SC040 7AC070 A2982
RJTT 170530Z 05013KT 9999 FEW030 SCT050 BKN080 21/15 Q1009 NOSIG RMK 1CU030 3SC050 5AC080 A2982
RJTT 170500Z 08010KT 9999 FEW030 SCT045 BKN/// 21/16 Q1009 BECMG 05010KT RMK 1CU030 3CU045 A2981
RJTT 170430Z 09006KT 030V120 9999 FEW020 SCT045 BKN/// 21/16 Q1009 BECMG 05008KT RMK 1CU020 3CU045 A2981
RJTT 170400Z 05006KT 010V090 9999 FEW020 BKN/// 22/14 Q1009 NOSIG RMK 1CU020 A2981 MOD TURB OBS AT 0343Z AROUND COLOR 11000FT IN DES BY B737
RJTT 170330Z 02007KT 360V060 9999 FEW020 BKN/// 22/14 Q1009 NOSIG RMK 1CU020 A2982
RJTT 170300Z 08003KT 9999 FEW020 SCT130 BKN/// 21/14 Q1009 NOSIG RMK 1CU020 3AC130 A2982
RJTT 170230Z 03003KT 360V070 9999 FEW020 SCT130 BKN/// 20/13 Q1010 NOSIG RMK 1CU020 4AC130 A2984 MOD TURB OBS AT 0209Z OVER COLOR BTN 10000FT AND 8000FT IN DES BY B763
RJTT 170200Z 04005KT 9999 FEW020 BKN130 BKN/// 20/13 Q1010 NOSIG RMK 1CU020 5AC130 A2984
RJTT 170130Z 02008KT 9999 FEW020 BKN130 20/14 Q1010 NOSIG RMK 1CU020 5AC130 A2984
RJTT 170100Z 36007KT 9999 FEW020 BKN140 20/13 Q1010 NOSIG RMK 1CU020 5AC140 A2984
RJTT 170030Z 35009KT 9999 FEW020 BKN130 19/13 Q1010 NOSIG RMK 1CU020 6AC130 A2985
RJTT 170000Z 35009KT 9999 FEW020 BKN130 BKN/// 19/13 Q1010 NOSIG RMK 1CU020 5AC130 A2985
RJTT 162330Z 34009KT 9999 FEW015 BKN130 18/14 Q1010 NOSIG RMK 1CU015 6AC130 A2984
RJTT 162300Z 35009KT 9999 -RA FEW015 BKN120 18/14 Q1010 NOSIG RMK 1CU015 6AC120 A2984
RJTT 162230Z 34007KT 9999 VCSH FEW010 SCT120 BKN130 18/14 Q1010 NOSIG RMK 1ST010 4AS120 5AC130 A2984
RJTT 162200Z 36010KT 9999 -RA FEW010 SCT120 BKN130 18/14 Q1010 NOSIG RMK 1ST010 4AS120 5AC130 A2983
RJTT 162130Z 36009KT 9999 -RA FEW010 SCT120 BKN130 17/14 Q1009 NOSIG RMK 1ST010 4AS120 5AC130 A2982
RJTT 162100Z 36008KT 9999 -RA FEW010 BKN110 BKN150 17/14 Q1009 NOSIG RMK 1ST010 6AC110 7AS150 A2982
RJTT 162030Z 35008KT 9999 -RA FEW010 OVC110 17/15 Q1009 NOSIG RMK 1ST010 8AS110 A2980
RJTT 162000Z 35010KT 9999 -RA FEW025 OVC110 17/15 Q1009 NOSIG RMK 1CU025 8AS110 A2981
RJTT 161930Z 33007KT 9999 -RA FEW025 OVC110 17/15 Q1009 NOSIG RMK 1CU025 8AS110 A2981
RJTT 161900Z 35009KT 9999 -RA FEW025 OVC110 18/15 Q1008 NOSIG RMK 1CU025 8AS110 A2979
RJTT 161830Z 34007KT 9999 -RA FEW025 BKN110 OVC140 18/15 Q1008 NOSIG RMK 1CU025 6AC110 8AS140 A2979
RJTT 161800Z 34010KT 9999 FEW020 BKN090 BKN140 18/15 Q1009 NOSIG RMK 2SC020 6AC090 7AS140 A2980
RJTT 161730Z 34011KT 9999 FEW020 BKN090 BKN140 18/15 Q1008 NOSIG RMK 2SC020 5AC090 7AS140 A2979
RJTT 161700Z 34008KT 9999 -RA FEW015 SCT020 OVC150 18/15 Q1008 NOSIG RMK 1CU015 3SC020 8AS150 A2979
RJTT 161630Z 34008KT 9999 -RA FEW020 BKN130 BKN150 18/15 Q1009 NOSIG RMK 2SC020 6AS130 7AC150 A2979
RJTT 161600Z 35008KT 9999 -RA FEW015 OVC110 19/16 Q1009 NOSIG RMK 1CU015 8AS110 A2980
RJTT 161541Z 35007KT 9999 -RA FEW015 SCT020 OVC110 19/16 Q1009 RMK 1CU015 3SC020 8AS110 A2981
RJTT 161530Z 35008KT 9999 RA FEW015 SCT020 OVC110 19/16 Q1009 BECMG -RA
RJTT 161500Z 36010KT 9999 -RA FEW015 SCT020 OVC100 19/16 Q1010 NOSIG RMK 1CU015 3SC020 8AS100 A2983
RJTT 161430Z 35009KT 9999 FEW015 SCT060 BKN120 19/16 Q1010 NOSIG RMK 1CU015 4SC060 7AC120 A2982
RJTT 161400Z 36010KT 9999 FEW015 SCT060 BKN130 19/16 Q1009 NOSIG RMK 1CU015 3SC060 7AC130 A2982
RJTT 161330Z 01012KT 9999 FEW015 BKN130 OVC200 19/16 Q1010 NOSIG RMK 1CU015 6AC130 8AS200 A2983
RJTT 161300Z 02011KT 9999 FEW015 BKN060 BKN140 19/16 Q1010 NOSIG RMK 1CU015 5SC060 7AC140 A2984
RJTT 161230Z 02011KT 9999 FEW015 SCT060 OVC150 19/16 Q1010 NOSIG RMK 1CU015 3SC060 8AS150 A2984
RJTT 161200Z 03009KT 9999 FEW015 BKN060 OVC180 19/17 Q1010 NOSIG RMK 1CU015 5SC060 8AS180 A2985
RJTT 161130Z 02010KT 9999 FEW015 SCT060 OVC190 19/17 Q1010 NOSIG RMK 1CU015 3SC060 8AS190 A2984
RJTT 161100Z 03009KT 9999 FEW015 SCT025 BKN060 19/16 Q1011 NOSIG RMK 1CU015 3SC025 6SC060 A2986
RJTT 161030Z 04011KT 9999 FEW015 SCT060 OVC210 20/16 Q1011 NOSIG RMK 1CU015 4SC060 8AS210 A2985
RJTT 161000Z 05011KT 9999 FEW030 BKN060 OVC200 20/17 Q1011 NOSIG RMK 1CU030 5SC060 8AS200 A2986
RJTT 160930Z 04011KT 9999 FEW030 SCT060 OVC200 20/17 Q1011 NOSIG RMK 1CU030 3SC060 8AS200 A2987
RJTT 160900Z 04008KT 9999 FEW030 SCT060 OVC180 20/16 Q1011 NOSIG RMK 1CU030 4SC060 8AS180 A2986
RJTT 160830Z 04008KT 9999 FEW030 SCT070 OVC/// 21/15 Q1011 NOSIG
RJTT 160800Z 05006KT 9999 FEW030 BKN070 OVC/// 21/15 Q1011 NOSIG
RJTT 160730Z 07004KT 9999 FEW025 SCT070 OVC/// 21/15 Q1011 BECMG 04008KT
RJTT 160700Z 08005KT 9999 FEW030 SCT070 OVC/// 21/15 Q1011 BECMG 04008KT
RJTT 160630Z 03005KT 9999 FEW030 OVC/// 21/14 Q1011 NOSIG RMK 1CU030 A2988
RJTT 160600Z 01005KT 9999 FEW030 OVC/// 21/13 Q1012 NOSIG RMK 1CU030 A2988
RJTT 160530Z 02003KT 330V060 9999 FEW030 SCT070 OVC/// 21/13 Q1012 NOSIG
RJTT 160500Z 35004KT 9999 FEW030 SCT060 OVC/// 21/13 Q1012 NOSIG RMK 1CU030 3SC060 A2990
RJTT 160430Z 36005KT 9999 FEW030 SCT050 OVC/// 21/13 Q1012 NOSIG RMK 1CU030 3SC050 A2991
RJTT 160400Z 02004KT 350V050 9999 FEW030 SCT050 OVC/// 21/14 Q1012 NOSIG RMK 1CU030 4SC050 A2990
RJTT 160330Z 02006KT 9999 SCT050 OVC/// 21/13 Q1012 NOSIG RMK 4SC050 A2991
RJTT 160300Z 02004KT 340V060 9999 FEW050 SCT170 BKN/// 21/14 Q1013 NOSIG RMK 1SC050 4AC170 A2992
RJTT 160230Z 02006KT 9999 FEW050 SCT170 BKN/// 20/13 Q1014 NOSIG RMK 1SC050 3AC170 A2994
RJTT 160200Z 03006KT 9999 FEW060 SCT180 BKN/// 20/13 Q1014 NOSIG RMK 1SC060 4AC180 A2995
RJTT 160130Z 02006KT CAVOK 20/14 Q1014 NOSIG RMK A2996
RJTT 160100Z 01007KT 9999 FEW050 BKN/// 19/13 Q1015 NOSIG RMK 1SC050 A2997
RJTT 160030Z 35007KT 9999 FEW050 BKN/// 19/13 Q1015 NOSIG RMK 1SC050 A2997
RJTT 160000Z 35007KT 9999 FEW040 BKN/// 19/14 Q1015 NOSIG RMK 1CU040 A2999
RJTT 152330Z 35008KT 9999 FEW030 BKN/// 19/14 Q1016 NOSIG RMK 1CU030 A3000
RJTT 152300Z 34007KT 9999 FEW030 BKN/// 18/14 Q1016 NOSIG RMK 1CU030 A3001
RJTT 152230Z 34009KT 9999 FEW030 BKN070 BKN/// 18/14 Q1016 NOSIG
RJTT 152200Z 34008KT 9999 FEW060 BKN/// 18/14 Q1016 NOSIG RMK 2SC060 A3001
RJTT 152130Z 34009KT 9999 SCT060 BKN/// 17/15 Q1016 NOSIG
RJTT 152100Z 36007KT 9999 FEW060 BKN/// 18/15 Q1015 NOSIG RMK 2SC060 A3000
RJTT 152030Z 02007KT CAVOK 18/15 Q1015 NOSIG RMK A3000
RJTT 152000Z 36008KT 9999 FEW045 BKN070 18/15 Q1015 NOSIG RMK 1SC045 7AC070 A3000
RJTT 151930Z 36007KT 9999 FEW045 BKN070 BKN/// 18/15 Q1015 NOSIG
RJTT 151900Z 36007KT 9999 FEW015 SCT045 BKN/// 18/14 Q1015 NOSIG RMK 1CU015 4SC045 A2999
RJTT 151830Z 01008KT 9999 FEW015 BKN035 18/14 Q1015 NOSIG RMK 1CU015 7SC035 A3000
RJTT 151800Z 36008KT 9999 FEW015 BKN030 18/15 Q1016 NOSIG RMK 1CU015 7SC030 A3000
RJTT 151730Z 36008KT 9999 FEW015 BKN030 BKN070 18/15 Q1016 NOSIG RMK 1CU015 5SC030 6AC070 A3001
RJTT 151700Z 36009KT 9999 FEW015 BKN080 19/15 Q1016 NOSIG RMK 1CU015 6AC080 A3001
RJTT 151630Z 02009KT 9999 FEW015 BKN080 18/15 Q1015 NOSIG RMK 1CU015 5AC080 A2999
RJTT 151600Z 01008KT 9999 FEW015 BKN090 19/15 Q1015 NOSIG RMK 1CU015 6AC090 A3000
RJTT 151530Z 01007KT 9999 FEW015 BKN080 19/15 Q1016 NOSIG RMK 1CU015 7AC080 A3001
RJTT 151500Z 02005KT 9999 FEW015 BKN030 BKN070 19/15 Q1016 NOSIG RMK 1CU015 5SC030 7AC070 A3002
RJTT 151430Z 02005KT 9999 FEW015 SCT030 BKN070 19/15 Q1016 NOSIG RMK 1CU015 3SC030 7AC070 A3002
RJTT 151400Z 01005KT 9999 -SHRA FEW015 BKN070 19/15 Q1016 NOSIG RMK 1CU015 7AC070 A3003
RJTT 151330Z 04005KT 9999 FEW015 BKN070 19/15 Q1017 NOSIG RMK 1CU015 7AC070 A3003
RJTT 151300Z 04006KT 9999 FEW015 BKN070 19/15 Q1016 NOSIG RMK 1CU015 7AC070 A3003
RJTT 151230Z 03007KT 9999 FEW015 BKN080 19/15 Q1017 NOSIG RMK 1CU015 7AC080 A3003
RJTT 151200Z 03006KT 9999 -SHRA FEW015 BKN080 19/15 Q1017 NOSIG RMK 1CU015 7AC080 A3004
RJTT 151130Z 02007KT 9999 -SHRA FEW015 BKN080 19/15 Q1017 NOSIG RMK 1CU015 7AC080 A3005
RJTT 151100Z 04009KT 9999 -SHRA FEW015 BKN080 19/15 Q1017 NOSIG RMK 1CU015 7AC080 A3004
RJTT 151030Z 03008KT 9999 -SHRA FEW015 SCT035 BKN090 19/16 Q1017 NOSIG RMK 1CU015 3CU035 7AC090 A3005
RJTT 151000Z 05007KT 9999 -SHRA FEW015 BKN090 19/16 Q1017 NOSIG RMK 1CU015 7AC090 A3003
RJTT 150930Z 05009KT 9999 VCSH FEW015 BKN020 BKN080 20/16 Q1016 NOSIG RMK 1CU015 5CU020 7AC080 A3003
RJTT 150900Z 06007KT 9999 VCSH FEW015 SCT020 BKN090 20/16 Q1016 BECMG 04006KT RMK 1CU015 4CU020 7AC090 A3002
RJTT 150830Z 07008KT 9999 FEW020 BKN090 20/16 Q1016 NOSIG RMK 1CU020 7AC090 A3002
RJTT 150800Z 09008KT 9999 FEW020 BKN100 20/16 Q1016 NOSIG RMK 1CU020 7AC100 A3002
RJTT 150730Z 08006KT 9999 FEW030 BKN100 20/15 Q1016 NOSIG RMK 1CU030 7AC100 A3003
RJTT 150700Z 08007KT 9999 FEW030 BKN100 20/16 Q1016 NOSIG RMK 1CU030 7AC100 A3003
RJTT 150630Z 07006KT 9999 FEW030 BKN110 20/15 Q1016 BECMG 04006KT RMK 1CU030 7AC110 A3003
RJTT 150600Z 06005KT 9999 FEW030 BKN110 20/15 Q1016 BECMG 04006KT RMK 1CU030 7AC110 A3003
RJTT 150530Z 05004KT 360V080 9999 FEW030 BKN120 BKN/// 20/14 Q1016 NOSIG RMK 1CU030 5AC120 A3003 MOD TURB OBS AT 0510Z 5NM S ADDUM 11500FT BY B763
RJTT 150500Z 06005KT 9999 FEW030 BKN100 BKN/// 20/14 Q1016 NOSIG RMK 1CU030 6AC100 A3002
RJTT 150430Z 07004KT 9999 -RA FEW030 BKN100 OVC170 20/14 Q1017 NOSIG RMK 1CU030 6AC100 8AS170 A3004